Terminal Aerodrome Forecast
Issued by NWS Twin Cities, MN

Home | Current Version | Previous Version | Graphics & Text | Print | Product List | Glossary On
Versions: 1 2 3 4 5 6 7 8 9 10 11 12 13 14 15
000
FTUS43 KMPX 160500
TAFEAU
TAF
KEAU 160539Z 1606/1706 36010KT 4SM -RA BR OVC004
     FM160900 35016KT 3SM -SN BR OVC005
      TEMPO 1610/1614 1 1/2SM -SN OVC010
     FM161400 33014G21KT 6SM -SN BR OVC012
     FM161700 32013KT P6SM OVC014
     FM170200 31011KT P6SM BKN020=

USA.gov is the U.S. government's official web portal to all federal, state and local government web resources and services.